Time;durP1;ratioP1;P1;durP2;ratioP2;P2;SDS_P1;SDS_P2;PMS_P1;PMS_P2;Temp;Humidity;BMP_temperature;BMP_pressure;BME280_temperature;BME280_humidity;BME280_pressure;Samples;Min_cycle;Max_cycle;Signal;HPM_P1;HPM_P2
2022/05/04 00:00:25;;;;;;;;;;;;;;;17.74;67.39;100934.38;7403810;19;1896;-55
2022/05/04 00:02:53;;;;;;;;;;;;;;;17.73;66.82;100919.31;7404026;19;1434;-61
2022/05/04 00:05:22;;;;;;;;;;;;;;;17.74;66.86;100929.03;7404322;19;1352;-53
2022/05/04 00:07:50;;;;;;;;;;;;;;;17.73;66.98;100932.69;7411674;19;1632;-54
2022/05/04 00:10:19;;;;;;;;;;;;;;;17.73;67.43;100935.38;7411962;19;1564;-61
2022/05/04 00:12:47;;;;;;;;;;;;;;;17.68;67.47;100927.69;7411490;19;1644;-54
2022/05/04 00:15:18;;;;;;;;;;;;;;;17.69;67.00;100936.59;7412444;19;1586;-53
2022/05/04 00:17:46;;;;;;;;;;;;;;;17.70;67.42;100933.78;7411777;19;1865;-61
2022/05/04 00:20:14;;;;;;;;;;;;;;;17.71;67.24;100929.28;7410877;19;1385;-53
2022/05/04 00:22:43;;;;;;;;;;;;;;;17.70;67.11;100927.56;7410542;19;1597;-53
2022/05/04 00:25:12;;;;;;;;;;;;;;;17.68;67.10;100910.81;7411889;19;1626;-53
2022/05/04 00:27:40;;;;;;;;;;;;;;;17.68;67.04;100919.66;7411317;19;1573;-62
2022/05/04 00:30:09;;;;;;;;;;;;;;;17.68;67.04;100913.47;7411860;19;1542;-61
2022/05/04 00:32:41;;;;;;;;;;;;;;;17.70;67.24;100935.59;7411583;19;1373;-53
2022/05/04 00:35:10;;;;;;;;;;;;;;;17.68;67.16;100913.47;7409277;19;1752;-62
2022/05/04 00:37:39;;;;;;;;;;;;;;;17.68;67.47;100927.69;7409727;19;1852;-53
2022/05/04 00:40:08;;;;;;;;;;;;;;;17.69;67.07;100928.56;7411728;19;1624;-55
2022/05/04 00:42:36;;;;;;;;;;;;;;;17.70;67.04;100922.22;7410890;19;1757;-55
2022/05/04 00:45:05;;;;;;;;;;;;;;;17.69;67.24;100917.88;7410114;19;1538;-62
2022/05/04 00:47:33;;;;;;;;;;;;;;;17.70;67.02;100922.22;7409541;19;1544;-62
2022/05/04 00:50:04;;;;;;;;;;;;;;;17.69;66.69;100910.69;7407270;19;1384;-54
2022/05/04 00:52:34;;;;;;;;;;;;;;;17.69;66.83;100915.19;7410128;19;1638;-54
2022/05/04 00:55:03;;;;;;;;;;;;;;;17.68;66.65;100925.03;7410634;19;1693;-61
2022/05/04 01:00:13;;;;;;;;;;;;;;;17.68;67.34;100919.66;7410515;19;1372;-62
2022/05/04 01:02:42;;;;;;;;;;;;;;;17.96;66.17;100921.97;7407040;19;1470;-62
2022/05/04 01:05:14;;;;;;;;;;;;;;;18.86;63.98;100921.66;7409049;19;1792;-53
2022/05/04 01:07:43;;;;;;;;;;;;;;;19.14;63.17;100916.59;7410362;19;1613;-62
2022/05/04 01:10:12;;;;;;;;;;;;;;;19.72;62.08;100927.63;7409514;19;1536;-54
2022/05/04 01:12:47;;;;;;;;;;;;;;;20.01;60.94;100916.09;7408804;19;1550;-62
2022/05/04 01:15:15;;;;;;;;;;;;;;;20.16;61.02;100912.03;7410577;19;1587;-54
2022/05/04 01:17:44;;;;;;;;;;;;;;;20.14;60.96;100924.75;7407940;19;1863;-62
2022/05/04 01:20:15;;;;;;;;;;;;;;;20.03;61.47;100920.38;7407601;19;1746;-53
2022/05/04 01:22:46;;;;;;;;;;;;;;;19.96;61.40;100919.22;7408953;19;1633;-54
2022/05/04 01:25:15;;;;;;;;;;;;;;;20.05;61.17;100914.84;7409365;19;1606;-62
2022/05/04 01:27:43;;;;;;;;;;;;;;;20.17;61.23;100908.34;7408869;19;1524;-62
2022/05/04 01:30:12;;;;;;;;;;;;;;;20.24;60.84;100924.78;7409914;19;1511;-63
2022/05/04 01:32:41;;;;;;;;;;;;;;;20.23;61.21;100913.19;7409270;19;1862;-54
2022/05/04 01:35:10;;;;;;;;;;;;;;;20.31;60.83;100906.25;7407381;19;1765;-54
2022/05/04 01:37:38;;;;;;;;;;;;;;;20.34;60.90;100897.94;7409059;19;1846;-62
2022/05/04 01:40:09;;;;;;;;;;;;;;;20.36;60.64;100914.75;7409838;19;1607;-61
2022/05/04 01:42:38;;;;;;;;;;;;;;;20.22;60.93;100911.47;7408452;19;1654;-62
2022/05/04 01:45:08;;;;;;;;;;;;;;;20.30;61.14;100902.72;7408276;19;1630;-61
2022/05/04 01:47:37;;;;;;;;;;;;;;;20.31;61.31;100903.56;7408460;19;1600;-54
2022/05/04 01:50:05;;;;;;;;;;;;;;;20.41;60.96;100910.66;7407532;19;1535;-61
2022/05/04 01:52:34;;;;;;;;;;;;;;;20.39;61.06;100909.06;7406544;19;1604;-55
2022/05/04 01:55:03;;;;;;;;;;;;;;;20.44;61.04;100901.47;7409148;19;1599;-54
2022/05/04 01:57:34;;;;;;;;;;;;;;;20.42;61.15;100903.44;7407869;19;1855;-61
2022/05/04 02:00:02;;;;;;;;;;;;;;;20.24;61.39;100908.66;7407505;19;1548;-53
2022/05/04 02:02:31;;;;;;;;;;;;;;;19.66;63.10;100906.69;7395597;19;1888;-62
2022/05/04 02:05:00;;;;;;;;;;;;;;;19.39;63.58;100891.19;7406923;19;1521;-63
2022/05/04 02:07:28;;;;;;;;;;;;;;;19.56;63.22;100905.81;7408253;19;1646;-62
2022/05/04 02:09:57;;;;;;;;;;;;;;;19.78;62.66;100897.56;7407427;19;1650;-63
2022/05/04 02:12:26;;;;;;;;;;;;;;;20.21;61.75;100896.38;7406108;19;1652;-63
2022/05/04 02:14:57;;;;;;;;;;;;;;;20.55;60.64;100909.38;7406745;19;1768;-63
2022/05/04 02:17:25;;;;;;;;;;;;;;;20.55;60.54;100909.38;7407754;19;1865;-63
2022/05/04 02:19:53;;;;;;;;;;;;;;;20.49;60.70;100901.03;7404653;19;1547;-63
2022/05/04 02:22:22;;;;;;;;;;;;;;;20.39;60.96;100909.06;7407121;19;1530;-63
2022/05/04 02:24:50;;;;;;;;;;;;;;;20.41;61.26;100925.91;7407920;19;1602;-63
2022/05/04 02:27:19;;;;;;;;;;;;;;;20.13;61.76;100893.50;7406480;19;1535;-63
2022/05/04 02:29:47;;;;;;;;;;;;;;;19.67;63.21;100905.69;7403415;19;1436;-63
2022/05/04 02:32:18;;;;;;;;;;;;;;;19.37;64.00;100899.38;7406814;19;1614;-63
2022/05/04 02:40:17;;;;;;;;;;;;;;;20.38;61.56;100915.47;7408309;19;1351;-63
2022/05/04 02:42:46;;;;;;;;;;;;;;;20.37;61.54;100911.06;7405393;19;1629;-63
2022/05/04 02:45:14;;;;;;;;;;;;;;;20.27;61.65;100914.59;7406643;19;1522;-62
2022/05/04 02:47:45;;;;;;;;;;;;;;;20.26;61.70;100920.94;7405852;19;1630;-63
2022/05/04 02:50:14;;;;;;;;;;;;;;;19.95;62.64;100911.28;7405378;19;1442;-63
2022/05/04 02:52:42;;;;;;;;;;;;;;;19.57;63.33;100920.91;7405506;19;1408;-63
2022/05/04 02:55:11;;;;;;;;;;;;;;;19.55;63.80;100906.78;7407038;19;1021;-63
2022/05/04 02:57:39;;;;;;;;;;;;;;;20.04;62.48;100905.94;7405024;19;1857;-63
2022/05/04 03:00:08;;;;;;;;;;;;;;;20.23;61.55;100917.69;7404945;19;1612;-63
2022/05/04 03:02:34;;;;;;;;;;;;;;;20.41;61.61;100912.47;7403544;19;1524;-63
2022/05/04 03:05:06;;;;;;;;;;;;;;;20.21;61.75;100916.97;7405723;19;1625;-62
2022/05/04 03:07:35;;;;;;;;;;;;;;;19.70;63.43;100916.16;7405663;19;1251;-63
2022/05/04 03:10:03;;;;;;;;;;;;;;;19.47;64.13;100918.19;7405467;19;1534;-64
2022/05/04 03:12:31;;;;;;;;;;;;;;;20.00;62.53;100917.13;7405944;19;1610;-63
2022/05/04 03:15:00;;;;;;;;;;;;;;;20.05;62.13;100921.09;7404099;19;1759;-63
2022/05/04 03:17:29;;;;;;;;;;;;;;;19.68;63.26;100928.84;7405329;19;1413;-63
2022/05/04 03:19:58;;;;;;;;;;;;;;;19.55;63.20;100912.97;7401438;19;1851;-63
2022/05/04 03:22:29;;;;;;;;;;;;;;;19.86;62.82;100924.56;7405324;19;1562;-63
2022/05/04 03:24:58;;;;;;;;;;;;;;;20.36;61.22;100929.03;7405812;19;1627;-63
2022/05/04 03:27:26;;;;;;;;;;;;;;;20.51;60.71;100917.84;7405975;19;1532;-63
2022/05/04 03:29:55;;;;;;;;;;;;;;;20.53;60.70;100923.91;7404238;19;1732;-63
2022/05/04 03:32:24;;;;;;;;;;;;;;;20.01;62.61;100919.63;7405048;19;1540;-63
2022/05/04 03:34:53;;;;;;;;;;;;;;;19.59;63.36;100924.28;7402953;19;1646;-63
2022/05/04 03:37:21;;;;;;;;;;;;;;;19.53;63.62;100925.69;7405877;19;968;-63
2022/05/04 03:39:52;;;;;;;;;;;;;;;20.12;62.26;100928.56;7402777;19;1856;-62
2022/05/04 03:42:21;;;;;;;;;;;;;;;19.85;62.63;100936.25;7404035;19;1415;-62
2022/05/04 03:44:50;;;;;;;;;;;;;;;19.52;63.87;100947.28;7404310;19;1527;-63
2022/05/04 03:47:18;;;;;;;;;;;;;;;19.72;63.24;100941.06;7402732;19;1808;-62
2022/05/04 03:49:47;;;;;;;;;;;;;;;20.15;62.15;100939.03;7402934;19;1605;-63
2022/05/04 03:52:15;;;;;;;;;;;;;;;19.90;62.52;100940.41;7404622;19;1571;-63
2022/05/04 03:54:44;;;;;;;;;;;;;;;19.56;63.45;100940.69;7404769;19;1001;-63
2022/05/04 03:57:16;;;;;;;;;;;;;;;19.31;64.18;100947.31;7403162;19;1680;-63
2022/05/04 03:59:44;;;;;;;;;;;;;;;19.16;64.68;100941.44;7400762;19;1858;-63
2022/05/04 04:02:12;;;;;;;;;;;;;;;19.03;64.80;100949.69;7400928;19;1520;-63
2022/05/04 04:04:41;;;;;;;;;;;;;;;18.97;64.96;100948.38;7403078;19;1647;-63
2022/05/04 04:07:10;;;;;;;;;;;;;;;18.92;65.37;100958.66;7404489;19;1036;-63
2022/05/04 04:09:38;;;;;;;;;;;;;;;18.85;65.31;100952.13;7403499;19;1491;-63
2022/05/04 04:12:07;;;;;;;;;;;;;;;18.81;65.69;100966.75;7403719;19;1630;-63
2022/05/04 04:14:38;;;;;;;;;;;;;;;18.76;65.67;100958.22;7402593;19;1767;-63
2022/05/04 04:17:07;;;;;;;;;;;;;;;18.74;65.85;100960.16;7403595;19;1595;-63
2022/05/04 04:19:35;;;;;;;;;;;;;;;18.68;65.37;100951.69;7403096;19;1869;-63
2022/05/04 04:22:01;;;;;;;;;;;;;;;18.69;65.44;100957.88;7403437;19;1610;-63
2022/05/04 04:24:30;;;;;;;;;;;;;;;18.64;65.46;100958.28;7404105;19;1546;-63
2022/05/04 04:26:58;;;;;;;;;;;;;;;18.62;65.46;100968.28;7402694;19;1631;-63
2022/05/04 04:29:27;;;;;;;;;;;;;;;18.63;65.38;100980.69;7401790;19;1344;-63
2022/05/04 04:31:58;;;;;;;;;;;;;;;18.59;66.02;100973.03;7402310;19;1545;-63
2022/05/04 04:34:26;;;;;;;;;;;;;;;18.55;63.65;100984.97;7401559;19;1893;-62
2022/05/04 04:36:55;;;;;;;;;;;;;;;18.54;62.65;100981.44;7403523;19;1678;-63
2022/05/04 04:39:23;;;;;;;;;;;;;;;18.58;64.55;100988.25;7400949;19;1860;-66
2022/05/04 04:41:52;;;;;;;;;;;;;;;18.60;64.22;100988.09;7402637;19;1527;-64
2022/05/04 04:44:20;;;;;;;;;;;;;;;18.59;64.63;100978.38;7401845;19;1250;-64
2022/05/04 04:46:49;;;;;;;;;;;;;;;18.61;65.04;100988.00;7402664;19;1611;-63
2022/05/04 04:49:20;;;;;;;;;;;;;;;18.63;64.91;100986.03;7403928;19;1533;-63
2022/05/04 04:51:48;;;;;;;;;;;;;;;18.57;65.43;100981.19;7401568;19;1670;-62
2022/05/04 04:54:17;;;;;;;;;;;;;;;18.61;65.44;100988.00;7409946;19;1537;-66
2022/05/04 04:56:45;;;;;;;;;;;;;;;18.60;65.26;100978.28;7409955;19;1618;-64
2022/05/04 04:59:14;;;;;;;;;;;;;;;18.60;65.14;100978.28;7404998;19;1863;-68
2022/05/04 05:01:42;;;;;;;;;;;;;;;18.59;65.39;100987.25;7404548;19;1614;-68
2022/05/04 05:04:11;;;;;;;;;;;;;;;18.56;65.86;100984.84;7408667;19;1344;-67
2022/05/04 05:06:42;;;;;;;;;;;;;;;18.59;65.76;100987.25;7408479;19;1727;-68
2022/05/04 05:09:10;;;;;;;;;;;;;;;18.59;66.02;100994.47;7408894;19;1547;-67
2022/05/04 05:11:39;;;;;;;;;;;;;;;18.60;65.83;100988.97;7406387;19;1340;-64
2022/05/04 05:16:48;;;;;;;;;;;;;;;18.68;65.03;100989.19;7408921;19;1756;-64
2022/05/04 05:19:16;;;;;;;;;;;;;;;18.68;65.17;100982.97;7407960;19;1849;-62
2022/05/04 05:21:47;;;;;;;;;;;;;;;18.74;65.63;100976.25;7408471;19;1626;-65
2022/05/04 05:24:16;;;;;;;;;;;;;;;18.78;65.94;100985.72;7408790;19;1433;-62
2022/05/04 05:26:44;;;;;;;;;;;;;;;18.79;64.67;100980.28;7401760;19;1359;-62
2022/05/04 05:29:13;;;;;;;;;;;;;;;18.87;64.93;100972.44;7403332;19;1507;-62
2022/05/04 05:31:41;;;;;;;;;;;;;;;18.91;65.06;100978.41;7404064;19;1600;-62
2022/05/04 05:34:09;;;;;;;;;;;;;;;18.94;65.15;100959.38;7407653;19;1610;-62
2022/05/04 05:36:39;;;;;;;;;;;;;;;18.96;65.05;100964.59;7404156;19;1278;-62
2022/05/04 05:39:10;;;;;;;;;;;;;;;18.97;65.05;100961.78;7407646;19;1867;-62
2022/05/04 05:41:38;;;;;;;;;;;;;;;18.98;64.93;100976.91;7407152;19;1618;-62
2022/05/04 05:44:07;;;;;;;;;;;;;;;19.00;64.94;100974.94;7406033;19;1536;-62
2022/05/04 05:46:35;;;;;;;;;;;;;;;18.96;65.12;100954.75;7407636;19;1550;-62
2022/05/04 05:49:04;;;;;;;;;;;;;;;19.00;64.63;100982.97;7407434;19;1354;-62
2022/05/04 05:51:32;;;;;;;;;;;;;;;18.97;64.71;100961.78;7406938;19;1350;-62
2022/05/04 05:54:01;;;;;;;;;;;;;;;18.96;64.73;100962.78;7408630;19;1515;-62
2022/05/04 05:56:32;;;;;;;;;;;;;;;18.95;64.92;100968.28;7406696;19;1389;-62
2022/05/04 05:59:00;;;;;;;;;;;;;;;18.92;65.49;100964.03;7406705;19;1881;-62
2022/05/04 06:01:29;;;;;;;;;;;;;;;18.90;65.34;100971.34;7405634;19;1583;-62
2022/05/04 06:03:57;;;;;;;;;;;;;;;18.87;65.28;100960.88;7408079;19;1545;-62
2022/05/04 06:06:26;;;;;;;;;;;;;;;18.90;65.26;100955.28;7406744;19;1551;-62
2022/05/04 06:08:54;;;;;;;;;;;;;;;18.94;65.31;100967.44;7405459;19;1553;-61
2022/05/04 06:11:22;;;;;;;;;;;;;;;18.96;65.12;100968.16;7402013;19;1330;-62
2022/05/04 06:13:56;;;;;;;;;;;;;;;18.95;65.35;100976.31;7399712;19;1460;-62
2022/05/04 06:16:24;;;;;;;;;;;;;;;18.95;65.43;100968.28;7403554;19;1547;-62
2022/05/04 06:18:52;;;;;;;;;;;;;;;18.92;65.27;100973.88;7406750;19;1877;-62
2022/05/04 06:21:21;;;;;;;;;;;;;;;18.90;65.21;100986.56;7407938;19;1346;-62
2022/05/04 06:23:49;;;;;;;;;;;;;;;18.88;65.40;100979.50;7406631;19;1673;-62
2022/05/04 06:26:20;;;;;;;;;;;;;;;18.88;65.27;100981.34;7405496;19;1496;-62
2022/05/04 06:28:48;;;;;;;;;;;;;;;18.93;65.39;100991.66;7407285;19;1625;-62
2022/05/04 06:34:11;;;;;;;;;;;;;;;18.90;65.42;100987.44;7406639;19;1531;-62
2022/05/04 06:36:40;;;;;;;;;;;;;;;18.92;65.05;100985.47;7405936;19;1523;-62
2022/05/04 06:39:09;;;;;;;;;;;;;;;18.90;64.81;100974.03;7406290;19;1845;-62
2022/05/04 06:41:38;;;;;;;;;;;;;;;18.94;65.09;100979.94;7405599;19;1429;-62
2022/05/04 06:44:07;;;;;;;;;;;;;;;18.94;65.02;100977.28;7405053;19;1344;-66
2022/05/04 06:46:41;;;;;;;;;;;;;;;19.00;65.03;100991.03;7407077;19;1520;-63
2022/05/04 06:49:10;;;;;;;;;;;;;;;19.13;64.92;100988.13;7405454;19;1617;-60
2022/05/04 06:51:39;;;;;;;;;;;;;;;19.15;64.93;100993.38;7405954;19;1527;-66
2022/05/04 06:54:08;;;;;;;;;;;;;;;19.14;65.18;100984.50;7406863;19;1538;-62
2022/05/04 06:56:36;;;;;;;;;;;;;;;19.20;65.17;100977.72;7404978;19;1439;-66
2022/05/04 06:59:05;;;;;;;;;;;;;;;19.37;65.45;100966.41;7404319;19;1857;-70
2022/05/04 07:01:39;;;;;;;;;;;;;;;19.36;65.43;100988.84;7403154;19;1433;-68
2022/05/04 07:04:07;;;;;;;;;;;;;;;19.33;66.39;100974.84;7406425;19;1614;-67
2022/05/04 07:06:36;;;;;;;;;;;;;;;19.33;66.53;100983.75;7405396;19;1345;-64
2022/05/04 07:09:04;;;;;;;;;;;;;;;19.35;66.21;100988.97;7405863;19;1361;-63
2022/05/04 07:11:33;;;;;;;;;;;;;;;19.41;66.11;100989.28;7403603;19;1543;-65
2022/05/04 07:14:01;;;;;;;;;;;;;;;19.31;66.02;100985.72;7405331;19;1504;-64
2022/05/04 07:16:30;;;;;;;;;;;;;;;19.33;65.94;100991.78;7404109;19;1257;-73
2022/05/04 07:19:01;;;;;;;;;;;;;;;19.31;66.48;100985.72;7404664;19;1859;-66
2022/05/04 07:21:29;;;;;;;;;;;;;;;19.32;66.64;100981.19;7404881;19;1673;-64
2022/05/04 07:23:58;;;;;;;;;;;;;;;19.36;66.17;100969.22;7404692;19;1625;-68
2022/05/04 07:26:26;;;;;;;;;;;;;;;19.37;65.94;100974.44;7404280;19;1679;-67
2022/05/04 07:28:54;;;;;;;;;;;;;;;19.37;66.59;100968.25;7403441;19;1531;-73
2022/05/04 07:31:23;;;;;;;;;;;;;;;19.26;66.34;100945.91;7404180;19;1576;-65
2022/05/04 07:33:52;;;;;;;;;;;;;;;19.34;66.21;100974.72;7404590;19;1516;-61
2022/05/04 07:36:23;;;;;;;;;;;;;;;19.35;66.52;100987.13;7404830;19;1541;-64
2022/05/04 07:38:51;;;;;;;;;;;;;;;19.32;66.64;100976.69;7404293;19;1532;-65
2022/05/04 07:44:00;;;;;;;;;;;;;;;19.35;66.26;100991.66;7404176;19;1125;-65
2022/05/04 07:46:30;;;;;;;;;;;;;;;19.32;66.70;100976.69;7403571;19;1403;-65
2022/05/04 07:48:58;;;;;;;;;;;;;;;19.30;66.34;100985.84;7402880;19;1404;-67
2022/05/04 07:51:30;;;;;;;;;;;;;;;19.32;66.07;100992.78;7402902;19;1328;-68
2022/05/04 07:53:58;;;;;;;;;;;;;;;19.31;66.44;100979.50;7404417;19;1241;-67
2022/05/04 07:56:26;;;;;;;;;;;;;;;19.23;66.38;100996.25;7401503;19;1328;-68
2022/05/04 07:58:55;;;;;;;;;;;;;;;19.17;65.63;100994.09;7403956;19;1428;-68
2022/05/04 08:04:20;;;;;;;;;;;;;;;19.13;65.07;100987.28;7404536;19;1348;-68
2022/05/04 08:06:51;;;;;;;;;;;;;;;19.10;64.81;100999.13;7403507;19;1447;-68
2022/05/04 08:09:19;;;;;;;;;;;;;;;19.06;64.89;100982.47;7402982;19;1376;-68
2022/05/04 08:11:48;;;;;;;;;;;;;;;19.07;64.84;100989.50;7403354;19;1209;-68
2022/05/04 08:14:16;;;;;;;;;;;;;;;19.08;64.24;100996.56;7403336;19;1170;-68
2022/05/04 08:16:45;;;;;;;;;;;;;;;19.05;63.98;100999.50;7403526;19;1368;-68
2022/05/04 08:19:14;;;;;;;;;;;;;;;19.09;64.40;100992.06;7403759;19;1381;-67
2022/05/04 08:21:42;;;;;;;;;;;;;;;19.05;64.55;100998.66;7403043;19;1367;-68
2022/05/04 08:24:13;;;;;;;;;;;;;;;19.08;64.43;100996.56;7403306;19;1334;-68
2022/05/04 08:26:42;;;;;;;;;;;;;;;19.08;64.46;101007.31;7404686;19;1438;-67
2022/05/04 08:29:10;;;;;;;;;;;;;;;19.09;64.79;100992.06;7411001;19;1345;-68
2022/05/04 08:31:39;;;;;;;;;;;;;;;19.09;64.83;101002.78;7407910;19;1500;-67
2022/05/04 08:34:07;;;;;;;;;;;;;;;19.08;65.00;101007.31;7411545;19;1622;-65
2022/05/04 08:36:37;;;;;;;;;;;;;;;19.10;64.79;101001.81;7409713;19;1531;-66
2022/05/04 08:39:06;;;;;;;;;;;;;;;19.08;64.67;101009.97;7410442;19;1634;-66
2022/05/04 08:41:38;;;;;;;;;;;;;;;19.05;64.31;100994.16;7408570;19;1846;-66
2022/05/04 08:44:08;;;;;;;;;;;;;;;19.03;64.18;100996.09;7409061;19;1644;-66
2022/05/04 08:46:38;;;;;;;;;;;;;;;19.02;64.07;100997.09;7409109;19;1573;-66
2022/05/04 08:49:07;;;;;;;;;;;;;;;18.99;63.47;100989.31;7409952;19;1502;-66
2022/05/04 08:51:37;;;;;;;;;;;;;;;18.97;63.50;100982.38;7409567;19;1467;-66
2022/05/04 08:54:06;;;;;;;;;;;;;;;18.99;63.84;100993.81;7409818;19;1535;-66
2022/05/04 08:56:37;;;;;;;;;;;;;;;18.99;64.11;100986.63;7409407;19;1226;-66
2022/05/04 08:59:06;;;;;;;;;;;;;;;18.98;64.17;100984.06;7409759;19;1491;-66
2022/05/04 09:01:35;;;;;;;;;;;;;;;18.99;64.07;100991.16;7406955;19;1878;-66
2022/05/04 09:04:03;;;;;;;;;;;;;;;18.97;64.22;100982.38;7411541;19;931;-66
2022/05/04 09:06:33;;;;;;;;;;;;;;;18.95;64.12;100985.19;7409159;19;1749;-66
2022/05/04 09:09:08;;;;;;;;;;;;;;;18.94;64.59;100978.16;7408385;19;1550;-66
2022/05/04 09:11:41;;;;;;;;;;;;;;;18.94;64.46;100980.81;7409136;19;1504;-66
2022/05/04 09:14:10;;;;;;;;;;;;;;;18.95;64.06;100976.31;7409827;19;1558;-66
2022/05/04 09:16:39;;;;;;;;;;;;;;;18.94;64.24;100978.16;7409329;19;1784;-66
2022/05/04 09:19:08;;;;;;;;;;;;;;;18.94;63.80;100986.19;7407888;19;1529;-66
2022/05/04 09:21:37;;;;;;;;;;;;;;;18.95;63.69;100976.31;7406430;19;1867;-66
2022/05/04 09:24:05;;;;;;;;;;;;;;;18.90;62.35;100963.31;7409444;19;1550;-66
2022/05/04 09:26:34;;;;;;;;;;;;;;;18.92;62.51;100969.38;7407116;19;1547;-66
2022/05/04 09:29:06;;;;;;;;;;;;;;;18.96;62.76;100965.47;7408556;19;1588;-66
2022/05/04 09:31:35;;;;;;;;;;;;;;;18.92;63.35;100964.03;7408134;19;1751;-66
2022/05/04 09:34:04;;;;;;;;;;;;;;;18.91;63.53;100962.31;7408355;19;1633;-66
2022/05/04 09:36:34;;;;;;;;;;;;;;;18.91;63.31;100959.63;7409384;19;1549;-66
2022/05/04 09:47:19;;;;;;;;;;;;;;;19.12;63.82;100953.41;7407772;19;1391;-67
2022/05/04 09:49:49;;;;;;;;;;;;;;;19.23;62.98;100966.75;7406948;19;1445;-67
2022/05/04 09:52:18;;;;;;;;;;;;;;;18.91;63.67;100908.72;7409260;19;1530;-69
2022/05/04 09:54:47;;;;;;;;;;;;;;;19.21;63.28;100945.44;7409414;19;1239;-69
2022/05/04 09:57:16;;;;;;;;;;;;;;;19.08;63.59;100944.81;7408045;19;1780;-69
2022/05/04 09:59:47;;;;;;;;;;;;;;;19.04;63.86;100946.91;7407459;19;1194;-71
2022/05/04 10:02:16;;;;;;;;;;;;;;;19.07;64.12;100941.25;7406017;19;1563;-74
2022/05/04 10:04:46;;;;;;;;;;;;;;;19.14;64.37;100933.56;7408584;19;1518;-66
2022/05/04 10:07:15;;;;;;;;;;;;;;;19.12;63.43;100937.31;7408584;19;1356;-76
2022/05/04 10:09:43;;;;;;;;;;;;;;;19.09;63.86;100935.78;7408511;19;1355;-76
2022/05/04 10:12:12;;;;;;;;;;;;;;;19.02;63.95;100943.50;7406046;19;1670;-78
2022/05/04 10:14:43;;;;;;;;;;;;;;;19.05;63.89;100920.94;7398630;19;1360;-75
2022/05/04 10:17:17;;;;;;;;;;;;;;;19.01;63.49;100943.63;7402809;19;1376;-79
2022/05/04 10:19:48;;;;;;;;;;;;;;;18.99;64.03;100940.22;7403315;19;1347;-78
2022/05/04 10:22:19;;;;;;;;;;;;;;;18.98;64.12;100934.03;7402757;19;1864;-78
2022/05/04 10:24:48;;;;;;;;;;;;;;;18.95;63.76;100926.22;7403948;19;1360;-74
2022/05/04 10:27:20;;;;;;;;;;;;;;;18.94;64.14;100908.47;7402941;19;1725;-75
2022/05/04 10:32:34;;;;;;;;;;;;;;;18.93;63.66;100928.19;7403613;19;1449;-82
2022/05/04 10:35:22;;;;;;;;;;;;;;;18.95;63.94;100920.88;7402573;19;1515;-73
2022/05/04 10:38:05;;;;;;;;;;;;;;;18.94;63.73;100924.56;7401686;19;1278;-75
2022/05/04 10:40:35;;;;;;;;;;;;;;;18.93;64.09;100905.91;7401995;19;1842;-78
2022/05/04 10:43:04;;;;;;;;;;;;;;;18.91;63.66;100906.03;7402450;19;1651;-74
2022/05/04 10:45:33;;;;;;;;;;;;;;;18.94;64.32;100913.84;7401755;19;1634;-77
2022/05/04 10:48:26;;;;;;;;;;;;;;;18.90;64.12;100922.25;7401222;19;1685;-74
2022/05/04 10:51:00;;;;;;;;;;;;;;;18.93;63.99;100906.75;7396535;19;1708;-73
2022/05/04 10:53:41;;;;;;;;;;;;;;;18.92;64.08;100897.03;7401793;19;1641;-75
2022/05/04 10:56:12;;;;;;;;;;;;;;;18.93;64.02;100909.44;7400830;19;1338;-72
2022/05/04 10:58:41;;;;;;;;;;;;;;;18.92;64.02;100905.06;7400944;19;1400;-72
2022/05/04 11:01:12;;;;;;;;;;;;;;;18.91;64.03;100908.72;7399020;19;1865;-72
2022/05/04 11:03:51;;;;;;;;;;;;;;;18.92;63.54;100904.19;7403422;19;1281;-75
2022/05/04 11:06:30;;;;;;;;;;;;;;;18.92;64.18;100893.47;7407028;19;1571;-75
2022/05/04 11:08:59;;;;;;;;;;;;;;;18.91;64.20;100894.47;7405669;19;1485;-74
2022/05/04 11:11:28;;;;;;;;;;;;;;;18.93;63.66;100890.69;7405257;19;1412;-74
2022/05/04 11:13:57;;;;;;;;;;;;;;;18.89;64.19;100894.59;7405554;19;1621;-74
2022/05/04 11:16:28;;;;;;;;;;;;;;;18.88;63.96;100890.25;7405127;19;1634;-74
2022/05/04 11:18:57;;;;;;;;;;;;;;;18.87;63.90;100888.53;7405577;19;1628;-71
2022/05/04 11:21:25;;;;;;;;;;;;;;;18.90;64.18;100879.38;7401557;19;1858;-75
2022/05/04 11:23:57;;;;;;;;;;;;;;;18.89;64.33;100878.53;7404693;19;1712;-69
2022/05/04 11:26:26;;;;;;;;;;;;;;;18.85;64.08;100877.09;7403474;19;1484;-75
2022/05/04 11:28:55;;;;;;;;;;;;;;;18.89;64.48;100878.53;7403899;19;1453;-74
2022/05/04 11:31:24;;;;;;;;;;;;;;;18.91;64.50;100897.16;7405300;19;1544;-74
2022/05/04 11:33:52;;;;;;;;;;;;;;;18.85;64.43;100888.66;7405474;19;1902;-75
2022/05/04 11:36:22;;;;;;;;;;;;;;;18.88;64.03;100885.72;7403133;19;1543;-71
2022/05/04 11:38:51;;;;;;;;;;;;;;;18.93;64.39;100890.69;7404510;19;1566;-71
2022/05/04 11:41:22;;;;;;;;;;;;;;;18.93;63.82;100871.91;7403393;19;1870;-75
2022/05/04 11:43:53;;;;;;;;;;;;;;;18.92;64.54;100880.97;7403289;19;1777;-74
2022/05/04 11:46:22;;;;;;;;;;;;;;;18.90;64.61;100880.25;7404205;19;1768;-75
2022/05/04 11:48:51;;;;;;;;;;;;;;;18.91;64.17;100887.28;7402374;19;1343;-75
2022/05/04 11:51:19;;;;;;;;;;;;;;;18.93;64.67;100881.78;7402140;19;1481;-75
2022/05/04 11:53:48;;;;;;;;;;;;;;;18.91;64.56;100881.91;7403282;19;1451;-76
2022/05/04 11:56:16;;;;;;;;;;;;;;;18.91;64.26;100871.22;7403859;19;1539;-76
2022/05/04 11:58:48;;;;;;;;;;;;;;;18.89;64.41;100873.16;7403916;19;1340;-75
2022/05/04 12:01:16;;;;;;;;;;;;;;;18.97;64.56;100870.66;7404702;19;1847;-64
2022/05/04 12:03:45;;;;;;;;;;;;;;;19.28;63.42;100862.66;7419046;19;1399;-67
2022/05/04 12:06:15;;;;;;;;;;;;;;;19.91;61.60;100862.41;7415951;19;1298;-68
2022/05/04 12:08:43;;;;;;;;;;;;;;;20.15;60.91;100862.00;7417952;19;1501;-68
2022/05/04 12:11:13;;;;;;;;;;;;;;;20.57;60.34;100859.03;7414821;19;1443;-70
2022/05/04 12:13:42;;;;;;;;;;;;;;;20.86;59.45;100859.00;7416471;19;1339;-71
2022/05/04 12:16:14;;;;;;;;;;;;;;;21.08;59.02;100851.56;7417241;19;1390;-77
2022/05/04 12:18:43;;;;;;;;;;;;;;;20.40;60.22;100843.66;7418976;19;1391;-78
2022/05/04 12:21:13;;;;;;;;;;;;;;;19.85;61.57;100865.66;7417289;19;1857;-78
2022/05/04 12:23:42;;;;;;;;;;;;;;;19.58;63.04;100860.91;7417327;19;1661;-78
2022/05/04 12:26:12;;;;;;;;;;;;;;;19.41;63.63;100855.19;7416283;19;1538;-78
2022/05/04 12:28:41;;;;;;;;;;;;;;;19.34;63.48;100866.59;7418162;19;1625;-78
2022/05/04 12:33:54;;;;;;;;;;;;;;;19.29;63.58;100858.97;7418381;19;1298;-69
2022/05/04 12:36:23;;;;;;;;;;;;;;;19.25;63.59;100862.91;7416140;19;1206;-85
2022/05/04 12:38:52;;;;;;;;;;;;;;;19.24;63.51;100856.72;7416572;19;1341;-70
2022/05/04 12:41:21;;;;;;;;;;;;;;;19.19;64.22;100858.09;7416337;19;1860;-73
2022/05/04 12:43:52;;;;;;;;;;;;;;;19.17;64.03;100855.53;7417545;19;1353;-75
2022/05/04 12:46:23;;;;;;;;;;;;;;;19.18;64.09;100859.06;7415961;19;1689;-77
2022/05/04 12:48:51;;;;;;;;;;;;;;;19.18;63.60;100848.34;7416473;19;1464;-63
2022/05/04 12:51:21;;;;;;;;;;;;;;;19.28;63.98;100852.75;7417319;19;1262;-75
2022/05/04 12:53:49;;;;;;;;;;;;;;;19.34;63.41;100848.69;7417775;19;1606;-69
2022/05/04 12:59:01;;;;;;;;;;;;;;;19.38;63.74;100860.00;7416607;19;1257;-75
2022/05/04 13:01:35;;;;;;;;;;;;;;;19.44;64.11;100868.34;7414518;19;1863;-70
2022/05/04 13:04:05;;;;;;;;;;;;;;;19.47;63.75;100854.66;7412362;19;1619;-67
2022/05/04 13:06:33;;;;;;;;;;;;;;;19.57;63.81;100851.16;7413902;19;1446;-68
2022/05/04 13:09:02;;;;;;;;;;;;;;;19.61;64.11;100847.22;7415953;19;1318;-65
2022/05/04 13:11:31;;;;;;;;;;;;;;;19.64;63.83;100836.22;7415837;19;1610;-66
2022/05/04 13:13:59;;;;;;;;;;;;;;;19.63;64.30;100853.28;7409931;19;1269;-70
2022/05/04 13:16:28;;;;;;;;;;;;;;;19.60;64.76;100846.38;7407896;19;1760;-70
2022/05/04 13:19:00;;;;;;;;;;;;;;;19.74;64.78;100841.66;7410152;19;1597;-66
2022/05/04 13:21:28;;;;;;;;;;;;;;;19.65;65.53;100857.53;7408074;19;1858;-65
2022/05/04 13:23:57;;;;;;;;;;;;;;;19.68;65.52;100849.22;7406870;19;1249;-75
2022/05/04 13:26:25;;;;;;;;;;;;;;;19.80;64.79;100849.97;7407879;19;1528;-71
2022/05/04 13:28:55;;;;;;;;;;;;;;;19.68;62.75;100849.22;7406596;19;1495;-77
2022/05/04 13:31:25;;;;;;;;;;;;;;;19.56;62.02;100844.94;7407196;19;1316;-74
2022/05/04 13:33:54;;;;;;;;;;;;;;;19.47;60.75;100848.44;7408603;19;1280;-74